SAN weather

San Diego International Airport
San Diego, California, United States

Public forecast

Using degrees Fahrenheit for public forecast. Weather courtesy of forecast.io.

Current aviation weather report (METAR) for San Diego International Airport

Retrieved 2019/10/13 17:51 UTC (1 hour ago):

KSAN 131751Z 22006KT 9SM BKN021 21/14 A2991 RMK AO2 SLP127 T02110144 10217 20183 51008

Aviation forecast (TAF) for San Diego International Airport

Retrieved 2019/10/13 18:30 UTC (25 minutes ago):

TAF KSAN 131729Z 1318/1424 VRB04KT P6SM SCT020 TEMPO 1318/1319 BKN020 FM131900 25009KT P6SM FEW020 FM140200 VRB04KT P6SM SCT020 FM140400 VRB04KT P6SM BKN020 FM141700 VRB04KT P6SM SCT020 FM141900 27008KT P6SM SKC